sensor_id;sensor_type;location;lat;lon;timestamp;temperature;humidity
39277;DHT22;63149;48.086;-1.606;2023-02-28T06:02:35;-0.80;99.90
39277;DHT22;63149;48.086;-1.606;2023-02-28T06:05:02;-0.80;99.90
39277;DHT22;63149;48.086;-1.606;2023-02-28T06:07:29;-0.80;99.90
39277;DHT22;63149;48.086;-1.606;2023-02-28T06:09:56;-0.80;99.90
39277;DHT22;63149;48.086;-1.606;2023-02-28T06:12:22;-0.80;99.90
39277;DHT22;63149;48.086;-1.606;2023-02-28T06:14:49;-0.80;99.90
39277;DHT22;63149;48.086;-1.606;2023-02-28T06:17:16;-0.80;99.90
39277;DHT22;63149;48.086;-1.606;2023-02-28T06:19:45;-0.80;99.90
39277;DHT22;63149;48.086;-1.606;2023-02-28T06:22:13;-0.80;99.90
39277;DHT22;63149;48.086;-1.606;2023-02-28T06:24:40;-0.80;99.90
39277;DHT22;63149;48.086;-1.606;2023-02-28T06:27:07;-0.80;99.90
39277;DHT22;63149;48.086;-1.606;2023-02-28T06:29:35;-0.90;99.90
39277;DHT22;63149;48.086;-1.606;2023-02-28T06:32:05;-0.80;99.90
39277;DHT22;63149;48.086;-1.606;2023-02-28T06:34:32;-0.80;99.90
39277;DHT22;63149;48.086;-1.606;2023-02-28T06:37:01;-0.90;99.90
39277;DHT22;63149;48.086;-1.606;2023-02-28T06:39:28;-0.90;99.90
39277;DHT22;63149;48.086;-1.606;2023-02-28T06:41:55;-0.90;99.90
39277;DHT22;63149;48.086;-1.606;2023-02-28T06:44:23;-1.00;99.90
39277;DHT22;63149;48.086;-1.606;2023-02-28T06:46:50;-1.00;99.90
39277;DHT22;63149;48.086;-1.606;2023-02-28T06:49:17;-1.00;99.90
39277;DHT22;63149;48.086;-1.606;2023-02-28T06:51:45;-0.90;99.90
39277;DHT22;63149;48.086;-1.606;2023-02-28T06:54:14;-1.00;99.90
39277;DHT22;63149;48.086;-1.606;2023-02-28T06:56:41;-1.00;99.90
39277;DHT22;63149;48.086;-1.606;2023-02-28T06:59:07;-1.00;99.90
39277;DHT22;63149;48.086;-1.606;2023-02-28T07:01:34;-1.00;99.90
39277;DHT22;63149;48.086;-1.606;2023-02-28T07:04:01;-1.00;99.90
39277;DHT22;63149;48.086;-1.606;2023-02-28T07:06:28;-1.00;99.90
39277;DHT22;63149;48.086;-1.606;2023-02-28T07:08:55;-1.10;99.90
39277;DHT22;63149;48.086;-1.606;2023-02-28T07:11:26;-1.10;99.90
39277;DHT22;63149;48.086;-1.606;2023-02-28T07:13:53;-1.10;99.90
39277;DHT22;63149;48.086;-1.606;2023-02-28T07:16:21;-1.20;99.90
39277;DHT22;63149;48.086;-1.606;2023-02-28T07:18:48;-1.20;99.90
39277;DHT22;63149;48.086;-1.606;2023-02-28T07:21:15;-1.20;99.90
39277;DHT22;63149;48.086;-1.606;2023-02-28T07:23:42;-1.20;99.90
39277;DHT22;63149;48.086;-1.606;2023-02-28T07:26:13;-1.00;99.90
39277;DHT22;63149;48.086;-1.606;2023-02-28T07:28:42;-0.90;99.90
39277;DHT22;63149;48.086;-1.606;2023-02-28T07:31:10;-0.90;99.90
39277;DHT22;63149;48.086;-1.606;2023-02-28T07:33:39;-0.80;99.90
39277;DHT22;63149;48.086;-1.606;2023-02-28T07:36:09;-0.70;99.90
39277;DHT22;63149;48.086;-1.606;2023-02-28T07:38:39;-0.60;99.90
39277;DHT22;63149;48.086;-1.606;2023-02-28T07:41:06;-0.50;99.90
39277;DHT22;63149;48.086;-1.606;2023-02-28T07:43:34;-0.40;99.90
39277;DHT22;63149;48.086;-1.606;2023-02-28T07:46:03;-0.30;99.90
39277;DHT22;63149;48.086;-1.606;2023-02-28T07:48:31;-0.20;99.90
39277;DHT22;63149;48.086;-1.606;2023-02-28T07:50:59;-0.10;99.90
39277;DHT22;63149;48.086;-1.606;2023-02-28T07:53:26;0.00;99.90
39277;DHT22;63149;48.086;-1.606;2023-02-28T07:55:55;0.10;99.90
39277;DHT22;63149;48.086;-1.606;2023-02-28T07:58:23;0.10;99.90
39277;DHT22;63149;48.086;-1.606;2023-02-28T08:00:50;0.20;99.90
39277;DHT22;63149;48.086;-1.606;2023-02-28T08:03:20;0.30;99.90
39277;DHT22;63149;48.086;-1.606;2023-02-28T08:05:47;0.40;99.90
39277;DHT22;63149;48.086;-1.606;2023-02-28T08:08:15;0.40;99.90
39277;DHT22;63149;48.086;-1.606;2023-02-28T08:10:42;0.50;99.90
39277;DHT22;63149;48.086;-1.606;2023-02-28T08:13:09;0.60;99.90
39277;DHT22;63149;48.086;-1.606;2023-02-28T08:15:36;0.60;99.90
39277;DHT22;63149;48.086;-1.606;2023-02-28T08:18:03;0.70;99.90
39277;DHT22;63149;48.086;-1.606;2023-02-28T08:20:32;0.70;99.90
39277;DHT22;63149;48.086;-1.606;2023-02-28T08:22:59;0.80;99.90
39277;DHT22;63149;48.086;-1.606;2023-02-28T08:25:26;0.90;99.90
39277;DHT22;63149;48.086;-1.606;2023-02-28T08:27:53;0.90;99.90
39277;DHT22;63149;48.086;-1.606;2023-02-28T08:30:19;1.00;99.90
39277;DHT22;63149;48.086;-1.606;2023-02-28T08:32:46;1.10;99.90
39277;DHT22;63149;48.086;-1.606;2023-02-28T08:35:13;1.10;99.90
39277;DHT22;63149;48.086;-1.606;2023-02-28T08:37:41;1.20;99.90
39277;DHT22;63149;48.086;-1.606;2023-02-28T08:40:09;1.20;99.90
39277;DHT22;63149;48.086;-1.606;2023-02-28T08:42:38;1.30;99.90
39277;DHT22;63149;48.086;-1.606;2023-02-28T08:45:06;1.30;99.90
39277;DHT22;63149;48.086;-1.606;2023-02-28T08:47:33;1.40;99.90
39277;DHT22;63149;48.086;-1.606;2023-02-28T08:50:00;1.40;99.90
39277;DHT22;63149;48.086;-1.606;2023-02-28T08:52:27;1.50;99.90
39277;DHT22;63149;48.086;-1.606;2023-02-28T08:54:55;1.60;99.90
39277;DHT22;63149;48.086;-1.606;2023-02-28T08:57:23;1.70;99.90
39277;DHT22;63149;48.086;-1.606;2023-02-28T08:59:51;1.80;99.90
39277;DHT22;63149;48.086;-1.606;2023-02-28T09:02:19;1.90;99.90
39277;DHT22;63149;48.086;-1.606;2023-02-28T09:04:45;2.00;99.90
39277;DHT22;63149;48.086;-1.606;2023-02-28T09:07:12;2.20;99.90
39277;DHT22;63149;48.086;-1.606;2023-02-28T09:09:39;2.30;99.90
39277;DHT22;63149;48.086;-1.606;2023-02-28T09:12:21;2.30;99.90
39277;DHT22;63149;48.086;-1.606;2023-02-28T09:14:48;2.50;99.90
39277;DHT22;63149;48.086;-1.606;2023-02-28T09:17:15;2.60;99.90
39277;DHT22;63149;48.086;-1.606;2023-02-28T09:19:42;2.80;99.90
39277;DHT22;63149;48.086;-1.606;2023-02-28T09:22:09;3.00;99.90
39277;DHT22;63149;48.086;-1.606;2023-02-28T09:24:37;3.20;99.90
39277;DHT22;63149;48.086;-1.606;2023-02-28T09:27:05;3.50;99.90
39277;DHT22;63149;48.086;-1.606;2023-02-28T09:29:34;3.70;99.90
39277;DHT22;63149;48.086;-1.606;2023-02-28T09:32:01;4.00;99.90
39277;DHT22;63149;48.086;-1.606;2023-02-28T09:34:31;4.40;99.90
39277;DHT22;63149;48.086;-1.606;2023-02-28T09:36:58;4.70;99.90
39277;DHT22;63149;48.086;-1.606;2023-02-28T09:39:25;5.20;99.90
39277;DHT22;63149;48.086;-1.606;2023-02-28T09:41:55;5.40;99.90
39277;DHT22;63149;48.086;-1.606;2023-02-28T09:44:28;6.00;99.90
39277;DHT22;63149;48.086;-1.606;2023-02-28T09:47:01;6.60;99.90
39277;DHT22;63149;48.086;-1.606;2023-02-28T09:49:37;6.20;99.90
39277;DHT22;63149;48.086;-1.606;2023-02-28T09:52:09;6.70;99.90
39277;DHT22;63149;48.086;-1.606;2023-02-28T09:54:37;6.90;99.90
39277;DHT22;63149;48.086;-1.606;2023-02-28T09:57:07;7.80;99.90
39277;DHT22;63149;48.086;-1.606;2023-02-28T09:59:59;8.20;99.90
39277;DHT22;63149;48.086;-1.606;2023-02-28T10:03:02;8.30;99.90
39277;DHT22;63149;48.086;-1.606;2023-02-28T10:05:34;8.90;99.90
39277;DHT22;63149;48.086;-1.606;2023-02-28T10:08:12;8.90;99.90
39277;DHT22;63149;48.086;-1.606;2023-02-28T10:10:42;9.10;99.90
39277;DHT22;63149;48.086;-1.606;2023-02-28T10:13:17;8.60;99.90
39277;DHT22;63149;48.086;-1.606;2023-02-28T10:15:48;8.50;99.90
39277;DHT22;63149;48.086;-1.606;2023-02-28T10:18:22;8.20;99.90
39277;DHT22;63149;48.086;-1.606;2023-02-28T10:20:51;8.60;99.90
39277;DHT22;63149;48.086;-1.606;2023-02-28T10:23:21;8.70;99.90
39277;DHT22;63149;48.086;-1.606;2023-02-28T10:25:54;9.20;99.90
39277;DHT22;63149;48.086;-1.606;2023-02-28T10:28:22;9.10;99.90
39277;DHT22;63149;48.086;-1.606;2023-02-28T10:30:52;8.70;99.90
39277;DHT22;63149;48.086;-1.606;2023-02-28T10:33:23;10.10;99.90
39277;DHT22;63149;48.086;-1.606;2023-02-28T10:35:51;11.80;99.90
39277;DHT22;63149;48.086;-1.606;2023-02-28T10:38:20;12.10;99.90
39277;DHT22;63149;48.086;-1.606;2023-02-28T10:40:48;10.90;99.90
39277;DHT22;63149;48.086;-1.606;2023-02-28T10:43:21;10.90;99.90
39277;DHT22;63149;48.086;-1.606;2023-02-28T10:45:58;10.10;99.90
39277;DHT22;63149;48.086;-1.606;2023-02-28T10:48:39;9.60;99.90
39277;DHT22;63149;48.086;-1.606;2023-02-28T10:51:09;9.40;99.90
39277;DHT22;63149;48.086;-1.606;2023-02-28T10:53:48;9.80;99.90
39277;DHT22;63149;48.086;-1.606;2023-02-28T10:56:17;8.60;99.90
39277;DHT22;63149;48.086;-1.606;2023-02-28T10:58:51;8.90;99.90
39277;DHT22;63149;48.086;-1.606;2023-02-28T11:01:20;9.10;99.90
39277;DHT22;63149;48.086;-1.606;2023-02-28T11:03:49;9.10;99.90
39277;DHT22;63149;48.086;-1.606;2023-02-28T11:06:19;9.60;99.90
39277;DHT22;63149;48.086;-1.606;2023-02-28T11:08:50;9.70;99.90
39277;DHT22;63149;48.086;-1.606;2023-02-28T11:11:19;10.40;99.90
39277;DHT22;63149;48.086;-1.606;2023-02-28T11:13:51;11.50;99.90
39277;DHT22;63149;48.086;-1.606;2023-02-28T11:16:19;10.80;99.90
39277;DHT22;63149;48.086;-1.606;2023-02-28T11:18:50;10.80;99.90
39277;DHT22;63149;48.086;-1.606;2023-02-28T11:21:22;11.50;99.90
39277;DHT22;63149;48.086;-1.606;2023-02-28T11:23:52;10.80;99.90
39277;DHT22;63149;48.086;-1.606;2023-02-28T11:26:41;10.90;99.90
39277;DHT22;63149;48.086;-1.606;2023-02-28T11:29:18;11.70;99.90
39277;DHT22;63149;48.086;-1.606;2023-02-28T11:32:02;11.30;99.90
39277;DHT22;63149;48.086;-1.606;2023-02-28T11:34:32;11.60;99.90
39277;DHT22;63149;48.086;-1.606;2023-02-28T11:36:59;10.70;99.40
39277;DHT22;63149;48.086;-1.606;2023-02-28T11:39:30;10.00;99.50
39277;DHT22;63149;48.086;-1.606;2023-02-28T11:42:11;9.30;99.60
39277;DHT22;63149;48.086;-1.606;2023-02-28T11:44:52;9.20;99.90
39277;DHT22;63149;48.086;-1.606;2023-02-28T11:47:30;9.40;99.90
39277;DHT22;63149;48.086;-1.606;2023-02-28T11:50:12;9.60;99.90
39277;DHT22;63149;48.086;-1.606;2023-02-28T11:52:47;10.90;99.90
39277;DHT22;63149;48.086;-1.606;2023-02-28T11:55:18;9.50;99.60
39277;DHT22;63149;48.086;-1.606;2023-02-28T12:03:33;12.20;99.90
39277;DHT22;63149;48.086;-1.606;2023-02-28T12:06:13;11.70;99.10
39277;DHT22;63149;48.086;-1.606;2023-02-28T12:08:52;13.00;99.90
39277;DHT22;63149;48.086;-1.606;2023-02-28T12:11:34;11.90;98.80
39277;DHT22;63149;48.086;-1.606;2023-02-28T12:17:12;14.40;98.70
39277;DHT22;63149;48.086;-1.606;2023-02-28T12:19:47;13.20;96.70
39277;DHT22;63149;48.086;-1.606;2023-02-28T12:22:26;13.50;98.00
39277;DHT22;63149;48.086;-1.606;2023-02-28T12:27:46;12.90;99.70
39277;DHT22;63149;48.086;-1.606;2023-02-28T12:30:17;12.70;98.40
39277;DHT22;63149;48.086;-1.606;2023-02-28T12:32:48;10.50;97.00
39277;DHT22;63149;48.086;-1.606;2023-02-28T12:35:21;10.50;98.10
39277;DHT22;63149;48.086;-1.606;2023-02-28T12:37:56;10.50;99.30
39277;DHT22;63149;48.086;-1.606;2023-02-28T12:40:27;9.90;98.80
39277;DHT22;63149;48.086;-1.606;2023-02-28T12:42:58;10.30;99.80
39277;DHT22;63149;48.086;-1.606;2023-02-28T12:45:31;12.10;99.90
39277;DHT22;63149;48.086;-1.606;2023-02-28T12:48:07;11.40;98.30
39277;DHT22;63149;48.086;-1.606;2023-02-28T12:50:35;11.30;98.80
39277;DHT22;63149;48.086;-1.606;2023-02-28T12:53:08;11.40;99.90
39277;DHT22;63149;48.086;-1.606;2023-02-28T12:55:42;11.40;99.90
39277;DHT22;63149;48.086;-1.606;2023-02-28T12:58:17;10.70;99.90
39277;DHT22;63149;48.086;-1.606;2023-02-28T13:01:01;11.20;99.90
39277;DHT22;63149;48.086;-1.606;2023-02-28T13:03:49;10.50;99.90
39277;DHT22;63149;48.086;-1.606;2023-02-28T13:06:33;10.30;99.90
39277;DHT22;63149;48.086;-1.606;2023-02-28T13:09:09;11.10;99.90
39277;DHT22;63149;48.086;-1.606;2023-02-28T13:11:43;10.30;99.90
39277;DHT22;63149;48.086;-1.606;2023-02-28T13:14:24;11.20;99.90
39277;DHT22;63149;48.086;-1.606;2023-02-28T13:16:58;10.50;99.90
39277;DHT22;63149;48.086;-1.606;2023-02-28T13:19:27;10.40;99.90
39277;DHT22;63149;48.086;-1.606;2023-02-28T13:21:56;10.30;99.90
39277;DHT22;63149;48.086;-1.606;2023-02-28T13:24:44;10.50;99.90
39277;DHT22;63149;48.086;-1.606;2023-02-28T13:27:23;10.40;99.90
39277;DHT22;63149;48.086;-1.606;2023-02-28T13:29:52;9.50;99.90
39277;DHT22;63149;48.086;-1.606;2023-02-28T13:32:37;9.20;99.90
39277;DHT22;63149;48.086;-1.606;2023-02-28T13:35:38;9.20;99.90
39277;DHT22;63149;48.086;-1.606;2023-02-28T13:38:32;8.70;99.90
39277;DHT22;63149;48.086;-1.606;2023-02-28T13:44:03;8.80;99.90
39277;DHT22;63149;48.086;-1.606;2023-02-28T13:46:31;8.80;99.90
39277;DHT22;63149;48.086;-1.606;2023-02-28T13:49:19;8.80;99.90
39277;DHT22;63149;48.086;-1.606;2023-02-28T13:51:47;8.90;99.90
39277;DHT22;63149;48.086;-1.606;2023-02-28T13:54:34;8.70;99.90
39277;DHT22;63149;48.086;-1.606;2023-02-28T13:57:20;8.70;99.90
39277;DHT22;63149;48.086;-1.606;2023-02-28T14:00:02;8.50;99.90
39277;DHT22;63149;48.086;-1.606;2023-02-28T14:02:59;8.60;99.90
39277;DHT22;63149;48.086;-1.606;2023-02-28T14:05:30;8.20;99.90
39277;DHT22;63149;48.086;-1.606;2023-02-28T14:08:04;8.00;99.90
39277;DHT22;63149;48.086;-1.606;2023-02-28T14:10:36;8.00;99.90
39277;DHT22;63149;48.086;-1.606;2023-02-28T14:16:00;7.90;99.90
39277;DHT22;63149;48.086;-1.606;2023-02-28T14:18:30;7.90;99.90
39277;DHT22;63149;48.086;-1.606;2023-02-28T14:21:03;7.80;99.90
39277;DHT22;63149;48.086;-1.606;2023-02-28T14:24:00;7.90;99.90
39277;DHT22;63149;48.086;-1.606;2023-02-28T14:26:53;8.00;99.90
39277;DHT22;63149;48.086;-1.606;2023-02-28T14:29:34;7.90;99.90
39277;DHT22;63149;48.086;-1.606;2023-02-28T14:32:11;7.80;99.90
39277;DHT22;63149;48.086;-1.606;2023-02-28T14:34:44;7.70;99.90
39277;DHT22;63149;48.086;-1.606;2023-02-28T14:37:19;7.70;99.90
39277;DHT22;63149;48.086;-1.606;2023-02-28T14:39:46;7.70;99.90
39277;DHT22;63149;48.086;-1.606;2023-02-28T14:42:29;7.70;99.90
39277;DHT22;63149;48.086;-1.606;2023-02-28T14:44:56;7.60;99.90
39277;DHT22;63149;48.086;-1.606;2023-02-28T14:47:28;7.50;99.90
39277;DHT22;63149;48.086;-1.606;2023-02-28T14:49:57;7.40;99.90
39277;DHT22;63149;48.086;-1.606;2023-02-28T14:52:27;7.30;99.90
39277;DHT22;63149;48.086;-1.606;2023-02-28T14:54:56;7.30;99.90
39277;DHT22;63149;48.086;-1.606;2023-02-28T14:57:27;7.20;99.90
39277;DHT22;63149;48.086;-1.606;2023-02-28T14:59:59;7.20;99.90
39277;DHT22;63149;48.086;-1.606;2023-02-28T15:02:31;7.20;99.90
39277;DHT22;63149;48.086;-1.606;2023-02-28T15:05:00;7.20;99.90
39277;DHT22;63149;48.086;-1.606;2023-02-28T15:07:27;7.20;99.90
39277;DHT22;63149;48.086;-1.606;2023-02-28T15:10:25;7.20;99.90
39277;DHT22;63149;48.086;-1.606;2023-02-28T15:12:55;7.10;99.90
39277;DHT22;63149;48.086;-1.606;2023-02-28T15:15:27;7.20;99.90
39277;DHT22;63149;48.086;-1.606;2023-02-28T15:17:59;7.20;99.90
39277;DHT22;63149;48.086;-1.606;2023-02-28T15:20:27;7.20;99.90
39277;DHT22;63149;48.086;-1.606;2023-02-28T15:22:55;7.10;99.90
39277;DHT22;63149;48.086;-1.606;2023-02-28T15:25:22;7.10;99.90
39277;DHT22;63149;48.086;-1.606;2023-02-28T15:27:51;7.00;99.90
39277;DHT22;63149;48.086;-1.606;2023-02-28T15:30:21;7.00;99.90
39277;DHT22;63149;48.086;-1.606;2023-02-28T15:33:05;7.00;99.90
39277;DHT22;63149;48.086;-1.606;2023-02-28T15:35:34;6.80;99.90
39277;DHT22;63149;48.086;-1.606;2023-02-28T15:38:03;6.70;99.90
39277;DHT22;63149;48.086;-1.606;2023-02-28T15:40:32;6.60;99.90
39277;DHT22;63149;48.086;-1.606;2023-02-28T15:43:05;6.50;99.90
39277;DHT22;63149;48.086;-1.606;2023-02-28T15:45:36;6.40;99.90
39277;DHT22;63149;48.086;-1.606;2023-02-28T15:48:05;6.40;99.90
39277;DHT22;63149;48.086;-1.606;2023-02-28T15:50:32;6.30;99.90
39277;DHT22;63149;48.086;-1.606;2023-02-28T15:53:00;6.20;99.90
39277;DHT22;63149;48.086;-1.606;2023-02-28T15:55:29;6.20;99.90
39277;DHT22;63149;48.086;-1.606;2023-02-28T15:58:00;6.10;99.90
39277;DHT22;63149;48.086;-1.606;2023-02-28T16:00:29;6.10;99.90
39277;DHT22;63149;48.086;-1.606;2023-02-28T16:02:58;6.10;99.90
39277;DHT22;63149;48.086;-1.606;2023-02-28T16:05:27;6.10;99.90
39277;DHT22;63149;48.086;-1.606;2023-02-28T16:07:58;5.90;99.90
39277;DHT22;63149;48.086;-1.606;2023-02-28T16:10:27;6.00;99.90
39277;DHT22;63149;48.086;-1.606;2023-02-28T16:12:55;5.90;99.90
39277;DHT22;63149;48.086;-1.606;2023-02-28T16:15:24;5.90;99.90
39277;DHT22;63149;48.086;-1.606;2023-02-28T16:17:53;5.90;99.90
39277;DHT22;63149;48.086;-1.606;2023-02-28T16:20:23;5.90;99.90
39277;DHT22;63149;48.086;-1.606;2023-02-28T16:22:51;6.00;99.90
39277;DHT22;63149;48.086;-1.606;2023-02-28T16:25:20;6.00;99.90
39277;DHT22;63149;48.086;-1.606;2023-02-28T16:27:50;5.90;99.90
39277;DHT22;63149;48.086;-1.606;2023-02-28T16:30:20;5.90;99.90
39277;DHT22;63149;48.086;-1.606;2023-02-28T16:32:48;5.90;99.90
39277;DHT22;63149;48.086;-1.606;2023-02-28T16:35:16;5.80;99.90
39277;DHT22;63149;48.086;-1.606;2023-02-28T16:37:43;5.90;99.90
39277;DHT22;63149;48.086;-1.606;2023-02-28T16:40:16;5.80;99.90
39277;DHT22;63149;48.086;-1.606;2023-02-28T16:42:45;5.80;99.90
39277;DHT22;63149;48.086;-1.606;2023-02-28T16:45:16;5.70;99.90
39277;DHT22;63149;48.086;-1.606;2023-02-28T16:47:45;5.70;99.90
39277;DHT22;63149;48.086;-1.606;2023-02-28T16:50:16;5.60;99.90
39277;DHT22;63149;48.086;-1.606;2023-02-28T16:52:43;5.70;99.90
39277;DHT22;63149;48.086;-1.606;2023-02-28T16:55:10;5.60;99.90
39277;DHT22;63149;48.086;-1.606;2023-02-28T16:57:39;5.60;99.90
39277;DHT22;63149;48.086;-1.606;2023-02-28T17:00:08;5.60;99.90
39277;DHT22;63149;48.086;-1.606;2023-02-28T17:02:38;5.60;99.90
39277;DHT22;63149;48.086;-1.606;2023-02-28T17:05:05;5.60;99.90
39277;DHT22;63149;48.086;-1.606;2023-02-28T17:07:33;5.60;99.90
39277;DHT22;63149;48.086;-1.606;2023-02-28T17:09:59;5.60;99.90
39277;DHT22;63149;48.086;-1.606;2023-02-28T17:12:34;5.60;99.90
39277;DHT22;63149;48.086;-1.606;2023-02-28T17:15:03;5.70;99.90
39277;DHT22;63149;48.086;-1.606;2023-02-28T17:17:30;5.70;99.90
39277;DHT22;63149;48.086;-1.606;2023-02-28T17:19:57;5.60;99.90
39277;DHT22;63149;48.086;-1.606;2023-02-28T17:22:24;5.50;99.90
39277;DHT22;63149;48.086;-1.606;2023-02-28T17:24:51;5.50;99.90
39277;DHT22;63149;48.086;-1.606;2023-02-28T17:27:21;5.50;99.90
39277;DHT22;63149;48.086;-1.606;2023-02-28T17:29:48;5.50;99.90
39277;DHT22;63149;48.086;-1.606;2023-02-28T17:32:17;5.50;99.90
39277;DHT22;63149;48.086;-1.606;2023-02-28T17:34:44;5.60;99.90
39277;DHT22;63149;48.086;-1.606;2023-02-28T17:37:11;5.50;99.90
39277;DHT22;63149;48.086;-1.606;2023-02-28T17:39:38;5.60;99.90
39277;DHT22;63149;48.086;-1.606;2023-02-28T17:42:05;5.60;99.90
39277;DHT22;63149;48.086;-1.606;2023-02-28T17:44:32;5.60;99.90
39277;DHT22;63149;48.086;-1.606;2023-02-28T17:46:59;5.60;99.90
39277;DHT22;63149;48.086;-1.606;2023-02-28T17:49:27;5.60;99.90
39277;DHT22;63149;48.086;-1.606;2023-02-28T17:51:54;5.60;99.90
39277;DHT22;63149;48.086;-1.606;2023-02-28T17:54:21;5.50;99.90
39277;DHT22;63149;48.086;-1.606;2023-02-28T17:56:48;5.50;99.90
39277;DHT22;63149;48.086;-1.606;2023-02-28T17:59:15;5.50;99.90
39277;DHT22;63149;48.086;-1.606;2023-02-28T18:01:42;5.60;99.90
39277;DHT22;63149;48.086;-1.606;2023-02-28T18:04:09;5.60;99.90
39277;DHT22;63149;48.086;-1.606;2023-02-28T18:06:39;5.50;99.90
39277;DHT22;63149;48.086;-1.606;2023-02-28T18:09:12;5.60;99.90
39277;DHT22;63149;48.086;-1.606;2023-02-28T18:11:38;5.50;99.90
39277;DHT22;63149;48.086;-1.606;2023-02-28T18:14:09;5.60;99.90
39277;DHT22;63149;48.086;-1.606;2023-02-28T18:16:36;5.50;99.90
39277;DHT22;63149;48.086;-1.606;2023-02-28T18:19:03;5.60;99.90
39277;DHT22;63149;48.086;-1.606;2023-02-28T18:21:31;5.60;99.90
39277;DHT22;63149;48.086;-1.606;2023-02-28T18:23:59;5.50;99.90
39277;DHT22;63149;48.086;-1.606;2023-02-28T18:26:26;5.50;99.90
39277;DHT22;63149;48.086;-1.606;2023-02-28T18:28:53;5.50;99.90
39277;DHT22;63149;48.086;-1.606;2023-02-28T18:31:20;5.50;99.90
39277;DHT22;63149;48.086;-1.606;2023-02-28T18:33:49;5.50;99.90
39277;DHT22;63149;48.086;-1.606;2023-02-28T18:36:16;5.50;99.90
39277;DHT22;63149;48.086;-1.606;2023-02-28T18:38:43;5.50;99.90
39277;DHT22;63149;48.086;-1.606;2023-02-28T18:41:12;5.40;99.90
39277;DHT22;63149;48.086;-1.606;2023-02-28T18:43:39;5.50;99.90
39277;DHT22;63149;48.086;-1.606;2023-02-28T18:46:08;5.40;99.90
39277;DHT22;63149;48.086;-1.606;2023-02-28T18:48:36;5.20;99.90
39277;DHT22;63149;48.086;-1.606;2023-02-28T18:51:06;5.20;99.90
39277;DHT22;63149;48.086;-1.606;2023-02-28T18:53:34;5.10;99.90
39277;DHT22;63149;48.086;-1.606;2023-02-28T18:56:01;4.90;99.90
39277;DHT22;63149;48.086;-1.606;2023-02-28T18:58:30;4.80;99.90
39277;DHT22;63149;48.086;-1.606;2023-02-28T19:00:58;4.60;99.90
39277;DHT22;63149;48.086;-1.606;2023-02-28T19:03:25;4.30;99.90
39277;DHT22;63149;48.086;-1.606;2023-02-28T19:05:54;4.20;99.90
39277;DHT22;63149;48.086;-1.606;2023-02-28T19:08:21;4.20;99.90
39277;DHT22;63149;48.086;-1.606;2023-02-28T19:10:48;4.00;99.90
39277;DHT22;63149;48.086;-1.606;2023-02-28T19:13:15;3.80;99.90
39277;DHT22;63149;48.086;-1.606;2023-02-28T19:15:43;3.90;99.90
39277;DHT22;63149;48.086;-1.606;2023-02-28T19:18:10;3.90;99.90
39277;DHT22;63149;48.086;-1.606;2023-02-28T19:20:37;3.80;99.90
39277;DHT22;63149;48.086;-1.606;2023-02-28T19:23:05;3.80;99.90
39277;DHT22;63149;48.086;-1.606;2023-02-28T19:25:31;3.70;99.90
39277;DHT22;63149;48.086;-1.606;2023-02-28T19:27:58;3.60;99.90
39277;DHT22;63149;48.086;-1.606;2023-02-28T19:30:25;3.50;99.90
39277;DHT22;63149;48.086;-1.606;2023-02-28T19:32:54;3.50;99.90
39277;DHT22;63149;48.086;-1.606;2023-02-28T19:35:20;3.40;99.90
39277;DHT22;63149;48.086;-1.606;2023-02-28T19:37:47;3.40;99.90
39277;DHT22;63149;48.086;-1.606;2023-02-28T19:40:15;3.40;99.90
39277;DHT22;63149;48.086;-1.606;2023-02-28T19:42:42;3.40;99.90
39277;DHT22;63149;48.086;-1.606;2023-02-28T19:45:10;3.40;99.90
39277;DHT22;63149;48.086;-1.606;2023-02-28T19:47:39;3.40;99.90
39277;DHT22;63149;48.086;-1.606;2023-02-28T19:50:09;3.40;99.90
39277;DHT22;63149;48.086;-1.606;2023-02-28T19:52:37;3.40;99.90
39277;DHT22;63149;48.086;-1.606;2023-02-28T19:55:04;3.40;99.90
39277;DHT22;63149;48.086;-1.606;2023-02-28T19:57:31;3.40;99.90
39277;DHT22;63149;48.086;-1.606;2023-02-28T19:59:58;3.40;99.90
39277;DHT22;63149;48.086;-1.606;2023-02-28T20:02:25;3.40;99.90
39277;DHT22;63149;48.086;-1.606;2023-02-28T20:04:52;3.40;99.90
39277;DHT22;63149;48.086;-1.606;2023-02-28T20:07:23;3.40;99.90
39277;DHT22;63149;48.086;-1.606;2023-02-28T20:09:49;3.40;99.90
39277;DHT22;63149;48.086;-1.606;2023-02-28T20:12:17;3.40;99.90
39277;DHT22;63149;48.086;-1.606;2023-02-28T20:14:47;3.40;99.90
39277;DHT22;63149;48.086;-1.606;2023-02-28T20:17:14;3.30;99.90
39277;DHT22;63149;48.086;-1.606;2023-02-28T20:19:41;3.30;99.90
39277;DHT22;63149;48.086;-1.606;2023-02-28T20:22:08;3.30;99.90
39277;DHT22;63149;48.086;-1.606;2023-02-28T20:24:36;3.30;99.90
39277;DHT22;63149;48.086;-1.606;2023-02-28T20:27:03;3.30;99.90
39277;DHT22;63149;48.086;-1.606;2023-02-28T20:29:31;3.30;99.90
39277;DHT22;63149;48.086;-1.606;2023-02-28T20:31:59;3.20;99.90
39277;DHT22;63149;48.086;-1.606;2023-02-28T20:34:26;3.20;99.90
39277;DHT22;63149;48.086;-1.606;2023-02-28T20:36:53;3.20;99.90
39277;DHT22;63149;48.086;-1.606;2023-02-28T20:39:21;3.10;99.90
39277;DHT22;63149;48.086;-1.606;2023-02-28T20:41:49;3.10;99.90
39277;DHT22;63149;48.086;-1.606;2023-02-28T20:44:17;3.00;99.90
39277;DHT22;63149;48.086;-1.606;2023-02-28T20:46:44;3.00;99.90
39277;DHT22;63149;48.086;-1.606;2023-02-28T20:49:11;3.00;99.90
39277;DHT22;63149;48.086;-1.606;2023-02-28T20:51:39;2.90;99.90
39277;DHT22;63149;48.086;-1.606;2023-02-28T20:54:07;2.80;99.90
39277;DHT22;63149;48.086;-1.606;2023-02-28T20:56:35;2.80;99.90
39277;DHT22;63149;48.086;-1.606;2023-02-28T20:59:04;2.80;99.90
39277;DHT22;63149;48.086;-1.606;2023-02-28T21:01:31;2.70;99.90
39277;DHT22;63149;48.086;-1.606;2023-02-28T21:04:00;2.70;99.90
39277;DHT22;63149;48.086;-1.606;2023-02-28T21:06:29;2.70;99.90
39277;DHT22;63149;48.086;-1.606;2023-02-28T21:08:57;2.60;99.90
39277;DHT22;63149;48.086;-1.606;2023-02-28T21:11:26;2.60;99.90
39277;DHT22;63149;48.086;-1.606;2023-02-28T21:13:54;2.60;99.90
39277;DHT22;63149;48.086;-1.606;2023-02-28T21:16:24;2.50;99.90
39277;DHT22;63149;48.086;-1.606;2023-02-28T21:18:52;2.50;99.90
39277;DHT22;63149;48.086;-1.606;2023-02-28T21:21:22;2.50;99.90
39277;DHT22;63149;48.086;-1.606;2023-02-28T21:23:50;2.40;99.90
39277;DHT22;63149;48.086;-1.606;2023-02-28T21:26:19;2.40;99.90
39277;DHT22;63149;48.086;-1.606;2023-02-28T21:28:48;2.40;99.90
39277;DHT22;63149;48.086;-1.606;2023-02-28T21:31:16;2.30;99.90
39277;DHT22;63149;48.086;-1.606;2023-02-28T21:33:45;2.30;99.90
39277;DHT22;63149;48.086;-1.606;2023-02-28T21:36:14;2.30;99.90
39277;DHT22;63149;48.086;-1.606;2023-02-28T21:38:42;2.20;99.90
39277;DHT22;63149;48.086;-1.606;2023-02-28T21:41:11;2.20;99.90
39277;DHT22;63149;48.086;-1.606;2023-02-28T21:43:39;2.20;99.90
39277;DHT22;63149;48.086;-1.606;2023-02-28T21:46:09;2.20;99.90
39277;DHT22;63149;48.086;-1.606;2023-02-28T21:48:37;2.20;99.90
39277;DHT22;63149;48.086;-1.606;2023-02-28T21:51:09;2.10;99.90
39277;DHT22;63149;48.086;-1.606;2023-02-28T21:53:37;2.10;99.90
39277;DHT22;63149;48.086;-1.606;2023-02-28T21:56:07;2.10;99.90
39277;DHT22;63149;48.086;-1.606;2023-02-28T21:58:34;2.10;99.90
39277;DHT22;63149;48.086;-1.606;2023-02-28T22:01:05;2.10;99.90
39277;DHT22;63149;48.086;-1.606;2023-02-28T22:03:33;2.10;99.90
39277;DHT22;63149;48.086;-1.606;2023-02-28T22:06:00;2.00;99.90